Time;durP1;ratioP1;P1;durP2;ratioP2;P2;SDS_P1;SDS_P2;PMS_P1;PMS_P2;Temp;Humidity;BMP_temperature;BMP_pressure;BME280_temperature;BME280_humidity;BME280_pressure;Samples;Min_cycle;Max_cycle;Signal;HPM_P1;HPM_P2
2022/06/08 00:02:07;;;;;;;9.35;5.20;;;;;;;;;;143737;587;46020;-60
2022/06/08 00:04:34;;;;;;;6.82;5.65;;;;;;;;;;143735;591;47021;-60
2022/06/08 00:07:01;;;;;;;5.45;4.65;;;;;;;;;;143734;626;46010;-60
2022/06/08 00:09:28;;;;;;;6.68;5.20;;;;;;;;;;143735;586;45912;-60
2022/06/08 00:11:56;;;;;;;11.75;5.80;;;;;;;;;;143738;570;46020;-60
2022/06/08 00:14:23;;;;;;;7.97;5.43;;;;;;;;;;143736;599;47020;-60
2022/06/08 00:16:50;;;;;;;8.30;5.10;;;;;;;;;;143734;565;47010;-60
2022/06/08 00:19:18;;;;;;;6.47;4.90;;;;;;;;;;143735;595;45021;-60
2022/06/08 00:21:45;;;;;;;6.78;5.12;;;;;;;;;;143739;617;46021;-60
2022/06/08 00:24:12;;;;;;;6.30;5.12;;;;;;;;;;143734;569;47020;-60
2022/06/08 00:26:39;;;;;;;6.65;5.07;;;;;;;;;;143732;606;47011;-61
2022/06/08 00:29:06;;;;;;;6.70;4.85;;;;;;;;;;143735;585;45912;-60
2022/06/08 00:31:34;;;;;;;5.95;5.15;;;;;;;;;;143739;625;46020;-61
2022/06/08 00:34:01;;;;;;;9.20;5.43;;;;;;;;;;143734;573;47020;-61
2022/06/08 00:36:28;;;;;;;6.35;5.00;;;;;;;;;;143735;622;46010;-60
2022/06/08 00:38:56;;;;;;;6.93;4.80;;;;;;;;;;143736;638;45020;-60
2022/06/08 00:41:48;;;;;;;7.55;5.57;;;;;;;;;;143739;622;46020;-60
2022/06/08 00:44:26;;;;;;;6.30;5.12;;;;;;;;;;143736;589;47020;-60
2022/06/08 00:46:55;;;;;;;7.03;5.55;;;;;;;;;;143734;565;46020;-61
2022/06/08 00:49:30;;;;;;;8.38;5.00;;;;;;;;;;143735;581;45912;-60
2022/06/08 00:52:00;;;;;;;7.15;4.90;;;;;;;;;;143739;630;46020;-61
2022/06/08 00:54:40;;;;;;;7.68;5.12;;;;;;;;;;143733;632;47022;-60
2022/06/08 00:57:32;;;;;;;7.60;5.65;;;;;;;;;;143735;606;46010;-60
2022/06/08 01:00:07;;;;;;;9.32;5.47;;;;;;;;;;143735;605;45020;-61
2022/06/08 01:02:34;;;;;;;7.55;5.03;;;;;;;;;;143739;626;46010;-60
2022/06/08 01:05:21;;;;;;;7.72;5.15;;;;;;;;;;143734;766;47023;-60
2022/06/08 01:07:51;;;;;;;6.85;5.15;;;;;;;;;;143736;617;46010;-60
2022/06/08 01:10:32;;;;;;;9.20;5.37;;;;;;;;;;143736;589;45020;-60
2022/06/08 01:13:04;;;;;;;7.18;5.30;;;;;;;;;;143739;601;46010;-60
2022/06/08 01:15:33;;;;;;;9.10;5.10;;;;;;;;;;143731;633;47020;-60
2022/06/08 01:18:00;;;;;;;7.72;4.97;;;;;;;;;;143735;604;47010;-60
2022/06/08 01:20:27;;;;;;;9.63;5.37;;;;;;;;;;143735;564;45911;-60
2022/06/08 01:22:54;;;;;;;7.47;5.65;;;;;;;;;;143739;600;46010;-60
2022/06/08 01:25:21;;;;;;;5.75;4.95;;;;;;;;;;143733;609;47020;-60
2022/06/08 01:28:35;;;;;;;6.55;5.20;;;;;;;;;;143734;613;47010;-60
2022/06/08 01:31:11;;;;;;;8.57;5.85;;;;;;;;;;143735;596;45022;-59
2022/06/08 01:34:14;;;;;;;9.23;4.95;;;;;;;;;;143739;600;46011;-59
2022/06/08 01:37:35;;;;;;;7.20;4.93;;;;;;;;;;143734;583;47020;-59
2022/06/08 01:40:34;;;;;;;8.77;5.32;;;;;;;;;;143734;610;47010;-60
2022/06/08 01:43:15;;;;;;;7.65;4.72;;;;;;;;;;143735;605;46018;-59
2022/06/08 01:46:17;;;;;;;6.40;4.72;;;;;;;;;;143739;589;46010;-60
2022/06/08 01:49:16;;;;;;;6.07;4.43;;;;;;;;;;143734;580;47021;-59
2022/06/08 01:52:16;;;;;;;6.03;5.15;;;;;;;;;;143735;603;46010;-60
2022/06/08 01:55:23;;;;;;;6.70;4.50;;;;;;;;;;143734;619;46012;-60
2022/06/08 01:58:38;;;;;;;7.53;4.82;;;;;;;;;;143738;576;46010;-60
2022/06/08 02:01:36;;;;;;;9.50;4.93;;;;;;;;;;143735;616;47020;-59
2022/06/08 02:04:41;;;;;;;7.90;4.80;;;;;;;;;;143762;607;46021;-60
2022/06/08 02:07:25;;;;;;;6.37;4.78;;;;;;;;;;143757;640;45020;-60
2022/06/08 02:10:07;;;;;;;7.65;5.00;;;;;;;;;;143765;582;46010;-60
2022/06/08 02:12:38;;;;;;;8.02;5.20;;;;;;;;;;143755;631;46021;-59
2022/06/08 02:15:37;;;;;;;6.82;4.65;;;;;;;;;;143758;623;46010;-60
2022/06/08 02:18:10;;;;;;;8.70;5.30;;;;;;;;;;143762;630;44908;-60
2022/06/08 02:21:28;;;;;;;6.43;4.97;;;;;;;;;;143767;582;45021;-60
2022/06/08 02:24:14;;;;;;;8.05;5.20;;;;;;;;;;143761;573;46020;-60
2022/06/08 02:26:46;;;;;;;6.30;4.82;;;;;;;;;;143763;588;45011;-60
2022/06/08 02:29:37;;;;;;;6.25;4.55;;;;;;;;;;143761;574;45912;-60
2022/06/08 02:35:19;;;;;;;7.43;4.55;;;;;;;;;;143761;610;45042;-60
2022/06/08 02:37:51;;;;;;;7.18;5.28;;;;;;;;;;143757;583;47010;-60
2022/06/08 02:40:31;;;;;;;10.13;4.80;;;;;;;;;;143759;612;44910;-60
2022/06/08 02:43:02;;;;;;;13.75;5.03;;;;;;;;;;143765;589;45021;-60
2022/06/08 02:45:37;;;;;;;7.65;4.75;;;;;;;;;;143760;619;46022;-59
2022/06/08 02:48:09;;;;;;;6.53;4.85;;;;;;;;;;143763;591;45917;-60
2022/06/08 02:50:41;;;;;;;10.13;5.45;;;;;;;;;;143762;565;44910;-60
2022/06/08 02:53:47;;;;;;;6.80;5.15;;;;;;;;;;143764;610;45020;-59
2022/06/08 02:56:27;;;;;;;7.35;4.70;;;;;;;;;;143762;605;46022;-59
2022/06/08 02:59:09;;;;;;;6.10;4.85;;;;;;;;;;143763;593;45919;-60
2022/06/08 03:02:05;;;;;;;8.43;5.20;;;;;;;;;;143759;565;45018;-59
2022/06/08 03:04:41;;;;;;;7.12;5.20;;;;;;;;;;143739;569;46010;-60
2022/06/08 03:07:16;;;;;;;5.47;4.43;;;;;;;;;;143734;593;47020;-60
2022/06/08 03:09:44;;;;;;;10.02;4.97;;;;;;;;;;143735;638;46011;-60
2022/06/08 03:12:17;;;;;;;8.82;4.87;;;;;;;;;;143737;624;45021;-60
2022/06/08 03:14:47;;;;;;;7.40;4.97;;;;;;;;;;143739;585;46020;-59
2022/06/08 03:17:17;;;;;;;6.65;4.80;;;;;;;;;;143735;619;47021;-60
2022/06/08 03:19:44;;;;;;;6.30;4.72;;;;;;;;;;143734;586;47010;-59
2022/06/08 03:22:14;;;;;;;8.00;5.30;;;;;;;;;;143734;569;45020;-60
2022/06/08 03:24:41;;;;;;;9.60;5.37;;;;;;;;;;143739;570;46020;-59
2022/06/08 03:27:09;;;;;;;7.15;4.90;;;;;;;;;;143735;586;47021;-59
2022/06/08 03:29:36;;;;;;;7.62;4.60;;;;;;;;;;143734;739;47010;-59
2022/06/08 03:32:04;;;;;;;6.68;4.97;;;;;;;;;;143733;612;46020;-60
2022/06/08 03:34:31;;;;;;;7.35;4.72;;;;;;;;;;143738;623;46010;-60
2022/06/08 03:36:58;;;;;;;6.87;5.47;;;;;;;;;;143734;576;47020;-60
2022/06/08 03:39:25;;;;;;;7.20;4.70;;;;;;;;;;143734;585;47010;-60
2022/06/08 03:41:52;;;;;;;7.62;4.70;;;;;;;;;;143734;582;45911;-60
2022/06/08 03:44:20;;;;;;;9.25;5.50;;;;;;;;;;143738;565;46010;-60
2022/06/08 03:47:11;;;;;;;5.57;4.50;;;;;;;;;;143734;625;47020;-60
2022/06/08 03:49:38;;;;;;;8.30;5.30;;;;;;;;;;143735;594;46028;-60
2022/06/08 03:52:10;;;;;;;7.82;4.87;;;;;;;;;;143735;571;46020;-60
2022/06/08 03:54:42;;;;;;;12.18;4.90;;;;;;;;;;143738;610;46020;-60
2022/06/08 03:57:11;;;;;;;8.38;4.90;;;;;;;;;;143735;571;47023;-60
2022/06/08 03:59:40;;;;;;;7.35;4.70;;;;;;;;;;143735;605;46028;-60
2022/06/08 04:02:09;;;;;;;8.75;4.85;;;;;;;;;;143736;602;45910;-60
2022/06/08 04:04:38;;;;;;;5.70;4.50;;;;;;;;;;143735;619;47012;-60
2022/06/08 04:07:05;;;;;;;7.47;4.75;;;;;;;;;;143733;560;47022;-60
2022/06/08 04:09:32;;;;;;;10.18;5.12;;;;;;;;;;143735;609;46028;-60
2022/06/08 04:11:59;;;;;;;11.70;4.80;;;;;;;;;;143735;586;45021;-60
2022/06/08 04:14:26;;;;;;;7.93;4.37;;;;;;;;;;143738;570;46020;-60
2022/06/08 04:16:53;;;;;;;10.43;5.35;;;;;;;;;;143734;583;47021;-60
2022/06/08 04:19:20;;;;;;;9.38;4.22;;;;;;;;;;143735;612;46027;-60
2022/06/08 04:21:48;;;;;;;13.02;5.15;;;;;;;;;;143735;602;45910;-61
2022/06/08 04:24:17;;;;;;;9.60;5.10;;;;;;;;;;143739;588;46011;-61
2022/06/08 04:26:44;;;;;;;7.07;5.03;;;;;;;;;;143735;598;47020;-60
2022/06/08 04:29:11;;;;;;;10.20;5.15;;;;;;;;;;143735;594;46010;-61
2022/06/08 04:31:39;;;;;;;9.80;4.97;;;;;;;;;;143735;582;45910;-60
2022/06/08 04:34:09;;;;;;;6.10;4.28;;;;;;;;;;143739;577;46010;-62
2022/06/08 04:36:40;;;;;;;7.93;5.10;;;;;;;;;;143736;632;47020;-62
2022/06/08 04:39:08;;;;;;;7.30;5.28;;;;;;;;;;143734;638;46010;-62
2022/06/08 04:41:36;;;;;;;6.30;4.70;;;;;;;;;;143735;660;45911;-62
2022/06/08 04:44:04;;;;;;;10.57;5.28;;;;;;;;;;143736;623;46020;-62
2022/06/08 04:46:31;;;;;;;7.70;4.97;;;;;;;;;;143734;596;47020;-61
2022/06/08 04:48:58;;;;;;;8.43;4.60;;;;;;;;;;143731;566;47010;-61
2022/06/08 04:51:25;;;;;;;6.00;4.50;;;;;;;;;;143733;589;45910;-61
2022/06/08 04:53:52;;;;;;;6.50;4.43;;;;;;;;;;143737;654;46010;-62
2022/06/08 04:56:19;;;;;;;5.43;4.45;;;;;;;;;;143732;625;47021;-62
2022/06/08 04:58:46;;;;;;;8.13;4.65;;;;;;;;;;143733;676;46010;-61
2022/06/08 05:01:14;;;;;;;7.32;4.50;;;;;;;;;;143732;589;45910;-62
2022/06/08 05:03:42;;;;;;;5.00;3.80;;;;;;;;;;143736;604;46021;-60
2022/06/08 05:06:09;;;;;;;6.07;3.90;;;;;;;;;;143731;569;47020;-59
2022/06/08 05:08:36;;;;;;;7.45;4.05;;;;;;;;;;143733;592;46011;-60
2022/06/08 05:11:05;;;;;;;5.53;4.18;;;;;;;;;;143732;694;46012;-61
2022/06/08 05:13:33;;;;;;;18.58;11.57;;;;;;;;;;143736;593;46020;-61
2022/06/08 05:16:01;;;;;;;5.50;4.47;;;;;;;;;;143732;592;47022;-60
2022/06/08 05:18:28;;;;;;;6.75;4.90;;;;;;;;;;143734;607;46011;-59
2022/06/08 05:20:55;;;;;;;7.55;4.72;;;;;;;;;;143731;574;46020;-60
2022/06/08 05:23:26;;;;;;;6.55;4.30;;;;;;;;;;143736;602;46010;-59
2022/06/08 05:25:54;;;;;;;4.70;3.80;;;;;;;;;;143733;594;47021;-60
2022/06/08 05:28:21;;;;;;;5.30;4.15;;;;;;;;;;143732;578;47010;-60
2022/06/08 05:30:49;;;;;;;9.48;4.37;;;;;;;;;;143732;572;46020;-59
2022/06/08 05:33:16;;;;;;;4.32;3.67;;;;;;;;;;143737;591;46010;-60
2022/06/08 05:35:44;;;;;;;5.12;3.78;;;;;;;;;;143733;573;47020;-60
2022/06/08 05:38:12;;;;;;;7.05;4.25;;;;;;;;;;143732;593;47010;-60
2022/06/08 05:40:39;;;;;;;5.57;3.83;;;;;;;;;;143733;572;45021;-59
2022/06/08 05:43:08;;;;;;;6.97;4.30;;;;;;;;;;143736;606;46026;-60
2022/06/08 05:45:35;;;;;;;4.53;4.00;;;;;;;;;;143733;571;47020;-60
2022/06/08 05:48:04;;;;;;;12.77;7.22;;;;;;;;;;143733;587;46029;-59
2022/06/08 05:50:31;;;;;;;8.98;4.62;;;;;;;;;;143734;574;45020;-59
2022/06/08 05:52:58;;;;;;;7.70;3.87;;;;;;;;;;143737;685;46010;-59
2022/06/08 05:55:26;;;;;;;6.93;4.15;;;;;;;;;;143732;587;47021;-59
2022/06/08 05:57:53;;;;;;;5.93;4.10;;;;;;;;;;143732;665;47010;-59
2022/06/08 06:00:25;;;;;;;6.22;3.78;;;;;;;;;;143731;569;45910;-59
2022/06/08 06:02:52;;;;;;;15.02;4.30;;;;;;;;;;143734;633;46021;-59
2022/06/08 06:05:24;;;;;;;5.50;3.95;;;;;;;;;;143731;586;47022;-60
2022/06/08 06:07:51;;;;;;;7.03;4.05;;;;;;;;;;143731;579;46022;-61
2022/06/08 06:10:19;;;;;;;4.85;3.67;;;;;;;;;;143733;569;46018;-60
2022/06/08 06:12:48;;;;;;;10.10;4.55;;;;;;;;;;143737;596;46010;-59
2022/06/08 06:15:15;;;;;;;8.65;3.87;;;;;;;;;;143734;577;47020;-60
2022/06/08 06:17:42;;;;;;;10.20;6.57;;;;;;;;;;143731;567;47010;-60
2022/06/08 06:20:10;;;;;;;5.18;4.03;;;;;;;;;;143734;565;45020;-59
2022/06/08 06:22:37;;;;;;;6.05;4.00;;;;;;;;;;143736;681;46020;-59
2022/06/08 06:25:06;;;;;;;5.18;3.87;;;;;;;;;;143731;581;47043;-60
2022/06/08 06:27:34;;;;;;;5.97;3.78;;;;;;;;;;143733;575;46023;-60
2022/06/08 06:30:01;;;;;;;4.72;3.90;;;;;;;;;;143732;604;45020;-60
2022/06/08 06:32:30;;;;;;;5.47;3.87;;;;;;;;;;143736;602;46021;-59
2022/06/08 06:34:59;;;;;;;10.43;4.82;;;;;;;;;;143733;599;47020;-59
2022/06/08 06:37:26;;;;;;;8.43;5.05;;;;;;;;;;143733;602;46012;-59
2022/06/08 06:39:53;;;;;;;25.27;6.80;;;;;;;;;;143733;608;45021;-59
2022/06/08 06:42:23;;;;;;;19.27;5.35;;;;;;;;;;143735;569;47010;-59
2022/06/08 06:44:53;;;;;;;10.50;3.92;;;;;;;;;;143731;570;47022;-59
2022/06/08 06:47:20;;;;;;;11.52;4.40;;;;;;;;;;143729;583;47010;-59
2022/06/08 06:49:48;;;;;;;15.48;6.03;;;;;;;;;;143732;642;45910;-59
2022/06/08 06:52:16;;;;;;;8.93;4.37;;;;;;;;;;143737;572;46010;-59
2022/06/08 06:54:43;;;;;;;10.90;5.00;;;;;;;;;;143733;615;47021;-59
2022/06/08 06:57:10;;;;;;;10.50;5.20;;;;;;;;;;143734;590;46026;-60
2022/06/08 06:59:38;;;;;;;6.30;3.87;;;;;;;;;;143732;588;45910;-59
2022/06/08 07:02:11;;;;;;;6.07;3.92;;;;;;;;;;143737;587;46021;-60
2022/06/08 07:04:38;;;;;;;8.10;4.28;;;;;;;;;;143732;592;47023;-59
2022/06/08 07:07:05;;;;;;;6.78;3.78;;;;;;;;;;143733;587;46027;-60
2022/06/08 07:09:32;;;;;;;5.72;4.28;;;;;;;;;;143734;633;45021;-60
2022/06/08 07:11:59;;;;;;;9.07;4.35;;;;;;;;;;143737;597;46010;-58
2022/06/08 07:14:26;;;;;;;7.30;4.05;;;;;;;;;;143731;584;47022;-59
2022/06/08 07:16:53;;;;;;;6.85;3.67;;;;;;;;;;143731;666;47011;-60
2022/06/08 07:19:20;;;;;;;5.60;3.70;;;;;;;;;;143732;608;45020;-60
2022/06/08 07:21:48;;;;;;;5.97;3.80;;;;;;;;;;143736;563;46020;-59
2022/06/08 07:24:21;;;;;;;6.93;3.95;;;;;;;;;;143731;593;47022;-60
2022/06/08 07:26:48;;;;;;;7.12;3.90;;;;;;;;;;143732;591;46010;-59
2022/06/08 07:29:16;;;;;;;4.85;4.10;;;;;;;;;;143733;629;45020;-61
2022/06/08 07:31:44;;;;;;;5.15;3.70;;;;;;;;;;143738;633;46020;-60
2022/06/08 07:34:13;;;;;;;4.00;3.55;;;;;;;;;;143733;625;47020;-60
2022/06/08 07:36:41;;;;;;;6.25;3.60;;;;;;;;;;143733;668;46010;-59
2022/06/08 07:39:09;;;;;;;5.25;3.40;;;;;;;;;;143732;589;45021;-59
2022/06/08 07:41:36;;;;;;;6.45;3.80;;;;;;;;;;143738;593;46010;-60
2022/06/08 07:44:04;;;;;;;3.37;3.08;;;;;;;;;;143732;566;47020;-60
2022/06/08 07:46:31;;;;;;;8.10;4.53;;;;;;;;;;143734;566;46021;-60
2022/06/08 07:51:43;;;;;;;5.07;3.22;;;;;;;;;;143739;594;46018;-60
2022/06/08 07:54:09;;;;;;;5.53;3.42;;;;;;;;;;143731;600;47021;-60
2022/06/08 07:56:37;;;;;;;6.10;4.18;;;;;;;;;;143733;592;47020;-60
2022/06/08 07:59:04;;;;;;;4.45;3.28;;;;;;;;;;143732;614;46020;-60
2022/06/08 08:01:31;;;;;;;8.13;3.85;;;;;;;;;;143736;566;46020;-61
2022/06/08 08:03:59;;;;;;;8.43;4.40;;;;;;;;;;143732;645;47020;-59
2022/06/08 08:06:25;;;;;;;6.68;3.80;;;;;;;;;;143732;802;47010;-60
2022/06/08 08:08:53;;;;;;;3.83;3.40;;;;;;;;;;143734;656;45021;-60
2022/06/08 08:11:19;;;;;;;7.43;3.83;;;;;;;;;;143737;646;46010;-61
2022/06/08 08:13:46;;;;;;;5.05;3.45;;;;;;;;;;143732;678;47020;-60
2022/06/08 08:16:13;;;;;;;7.30;4.10;;;;;;;;;;143732;637;47010;-60
2022/06/08 08:18:40;;;;;;;4.20;3.45;;;;;;;;;;143733;576;45912;-60
2022/06/08 08:21:07;;;;;;;5.82;3.65;;;;;;;;;;143737;566;46010;-60
2022/06/08 08:23:34;;;;;;;4.80;3.30;;;;;;;;;;143733;649;47021;-59
2022/06/08 08:26:01;;;;;;;4.18;3.30;;;;;;;;;;143732;573;47016;-60
2022/06/08 08:28:28;;;;;;;8.68;4.30;;;;;;;;;;143733;567;47020;-60
2022/06/08 08:30:55;;;;;;;11.18;4.75;;;;;;;;;;143736;658;47010;-60
2022/06/08 08:33:22;;;;;;;6.53;4.22;;;;;;;;;;143731;619;47023;-60
2022/06/08 08:35:50;;;;;;;4.40;3.70;;;;;;;;;;143732;677;47010;-60
2022/06/08 08:38:19;;;;;;;6.05;3.85;;;;;;;;;;143735;578;45021;-61
2022/06/08 08:42:20;;;;;;;5.43;3.72;;;;;;;;;;143737;577;46010;-61
2022/06/08 08:43:52;;;;;;;5.25;3.50;;;;;;;;;;143734;660;46010;-60
2022/06/08 08:46:55;;;;;;;6.05;4.50;;;;;;;;;;143733;589;46010;-60
2022/06/08 08:49:23;;;;;;;6.53;4.30;;;;;;;;;;143731;811;45910;-60
2022/06/08 08:52:00;;;;;;;5.30;3.53;;;;;;;;;;143737;571;46020;-60
2022/06/08 08:54:39;;;;;;;5.75;3.78;;;;;;;;;;143732;661;47020;-59
2022/06/08 08:57:19;;;;;;;4.35;3.40;;;;;;;;;;143731;667;47010;-60
2022/06/08 08:59:51;;;;;;;3.45;3.15;;;;;;;;;;143734;618;45021;-60
2022/06/08 09:05:18;;;;;;;4.55;3.53;;;;;;;;;;143735;681;45022;-60
2022/06/08 09:07:45;;;;;;;7.55;3.60;;;;;;;;;;143731;566;47010;-60
2022/06/08 09:10:18;;;;;;;6.78;4.18;;;;;;;;;;143731;813;45910;-61
2022/06/08 09:12:45;;;;;;;4.47;3.60;;;;;;;;;;143736;564;47010;-60
2022/06/08 09:15:14;;;;;;;3.20;2.85;;;;;;;;;;143731;683;47022;-61
2022/06/08 09:17:52;;;;;;;6.35;4.43;;;;;;;;;;143733;608;46018;-60
2022/06/08 09:20:37;;;;;;;6.43;3.80;;;;;;;;;;143732;586;45910;-60
2022/06/08 09:23:57;;;;;;;6.28;3.83;;;;;;;;;;143736;625;46020;-60
2022/06/08 09:26:34;;;;;;;7.45;3.70;;;;;;;;;;143733;566;47024;-61
2022/06/08 09:29:12;;;;;;;10.02;4.00;;;;;;;;;;143733;575;46010;-62
2022/06/08 09:31:40;;;;;;;4.62;3.30;;;;;;;;;;143735;584;45021;-61
2022/06/08 09:34:53;;;;;;;5.05;3.60;;;;;;;;;;143737;668;46010;-62
2022/06/08 09:37:24;;;;;;;6.60;3.12;;;;;;;;;;143732;587;47021;-61
2022/06/08 09:39:51;;;;;;;4.05;3.35;;;;;;;;;;143732;571;47010;-61
2022/06/08 09:42:46;;;;;;;10.45;4.05;;;;;;;;;;143734;564;45020;-62
2022/06/08 09:45:44;;;;;;;4.22;3.60;;;;;;;;;;143736;629;46011;-61
2022/06/08 09:52:03;;;;;;;7.03;3.78;;;;;;;;;;143733;582;47020;-60
2022/06/08 09:54:48;;;;;;;10.32;4.30;;;;;;;;;;143733;569;45023;-59
2022/06/08 09:57:41;;;;;;;5.05;3.72;;;;;;;;;;143736;576;46020;-61
2022/06/08 10:00:45;;;;;;;5.32;3.72;;;;;;;;;;143735;583;47021;-60
2022/06/08 10:03:28;;;;;;;;;;;;;;;;;;143737;979;46021;-60
2022/06/08 10:06:21;;;;;;;5.85;3.90;;;;;;;;;;143739;653;45020;-60
2022/06/08 10:09:48;;;;;;;6.15;4.10;;;;;;;;;;143737;598;46012;-60
2022/06/08 10:13:06;;;;;;;7.72;3.95;;;;;;;;;;143728;591;47024;-60
2022/06/08 10:15:46;;;;;;;4.60;3.83;;;;;;;;;;143731;663;47010;-59
2022/06/08 10:18:28;;;;;;;13.27;4.25;;;;;;;;;;143734;576;45020;-59
2022/06/08 10:21:10;;;;;;;7.03;4.30;;;;;;;;;;143735;615;46020;-60
2022/06/08 10:23:56;;;;;;;7.65;4.55;;;;;;;;;;143734;627;47021;-60
2022/06/08 10:26:29;;;;;;;5.95;3.95;;;;;;;;;;143731;595;47010;-59
2022/06/08 10:29:32;;;;;;;3.60;3.30;;;;;;;;;;143734;619;46020;-59
2022/06/08 10:32:29;;;;;;;6.72;3.80;;;;;;;;;;143736;605;46032;-59
2022/06/08 10:34:57;;;;;;;5.82;3.80;;;;;;;;;;143730;569;47022;-59
2022/06/08 10:37:39;;;;;;;5.43;3.90;;;;;;;;;;143730;642;47014;-59
2022/06/08 10:40:15;;;;;;;7.25;4.03;;;;;;;;;;143734;569;45020;-58
2022/06/08 10:42:44;;;;;;;13.75;4.35;;;;;;;;;;143737;633;46012;-58
2022/06/08 10:45:43;;;;;;;5.85;4.00;;;;;;;;;;143730;630;47022;-59
2022/06/08 10:48:42;;;;;;;6.05;4.03;;;;;;;;;;143731;639;47010;-59
2022/06/08 10:51:31;;;;;;;5.45;4.15;;;;;;;;;;143734;564;45021;-59
2022/06/08 10:56:53;;;;;;;4.53;3.65;;;;;;;;;;143734;750;46010;-59
2022/06/08 10:59:26;;;;;;;5.40;4.07;;;;;;;;;;143734;578;46010;-60
2022/06/08 11:02:28;;;;;;;8.13;4.15;;;;;;;;;;143725;615;46021;-60
2022/06/08 11:05:19;;;;;;;7.12;4.05;;;;;;;;;;143730;582;46012;-60
2022/06/08 11:08:22;;;;;;;7.85;3.92;;;;;;;;;;143728;649;47022;-60
2022/06/08 11:10:57;;;;;;;5.00;3.62;;;;;;;;;;143727;667;46010;-59
2022/06/08 11:13:34;;;;;;;5.70;4.00;;;;;;;;;;143727;625;46014;-60
2022/06/08 11:16:29;;;;;;;4.72;3.85;;;;;;;;;;143731;689;46013;-59
2022/06/08 11:19:14;;;;;;;4.03;3.37;;;;;;;;;;143726;663;47022;-60
2022/06/08 11:22:00;;;;;;;5.90;4.00;;;;;;;;;;143726;581;47010;-59
2022/06/08 11:24:49;;;;;;;10.35;4.55;;;;;;;;;;143728;577;45912;-60
2022/06/08 11:27:37;;;;;;;5.20;3.90;;;;;;;;;;143730;591;46012;-60
